createdAt,value
2019-01-02T00:02:35.350Z,99.90
2019-01-02T00:08:16.531Z,99.90
2019-01-02T00:11:04.380Z,99.90
2019-01-02T00:13:46.978Z,99.90
2019-01-02T00:16:27.616Z,99.90
2019-01-02T00:19:08.161Z,99.90
2019-01-02T00:21:48.816Z,99.90
2019-01-02T00:24:29.554Z,99.90
2019-01-02T00:27:10.249Z,99.90
2019-01-02T00:29:51.938Z,99.90
2019-01-02T00:32:32.351Z,99.90
2019-01-02T00:35:13.030Z,99.90
2019-01-02T00:37:54.311Z,99.90
2019-01-02T00:40:35.196Z,99.90
2019-01-02T00:43:15.584Z,99.90
2019-01-02T00:45:56.986Z,99.90
2019-01-02T00:48:37.700Z,99.90
2019-01-02T00:51:18.456Z,99.90
2019-01-02T00:53:59.821Z,99.90
2019-01-02T00:56:40.185Z,99.90
2019-01-02T00:59:21.519Z,99.90
2019-01-02T01:02:02.816Z,99.90
2019-01-02T01:04:43.330Z,99.90
2019-01-02T01:10:05.920Z,99.90
2019-01-02T01:12:47.375Z,99.90
2019-01-02T01:15:28.286Z,99.90
2019-01-02T01:18:08.855Z,99.90
2019-01-02T01:20:49.631Z,99.90
2019-01-02T01:23:30.568Z,99.90
2019-01-02T01:26:12.014Z,99.90
2019-01-02T01:28:52.644Z,99.90
2019-01-02T01:31:33.404Z,99.90
2019-01-02T01:34:12.345Z,99.90
2019-01-02T01:37:00.224Z,99.90
2019-01-02T01:39:49.789Z,99.90
2019-01-02T01:42:39.420Z,99.90
2019-01-02T01:45:27.365Z,99.90
2019-01-02T01:48:15.234Z,99.90
2019-01-02T01:51:03.099Z,99.90
2019-01-02T01:53:51.055Z,99.90
2019-01-02T01:56:40.632Z,99.90
2019-01-02T01:59:30.232Z,99.90
2019-01-02T02:02:18.074Z,99.90
2019-01-02T02:05:26.634Z,99.90
2019-01-02T02:08:14.483Z,99.90
2019-01-02T02:13:49.975Z,99.90
2019-01-02T02:16:29.197Z,99.90
2019-01-02T02:19:17.044Z,99.90
2019-01-02T02:24:59.446Z,99.90
2019-01-02T02:36:44.161Z,99.90
2019-01-02T02:39:33.715Z,99.90
2019-01-02T02:42:23.342Z,99.90
2019-01-02T02:48:07.564Z,99.90
2019-01-02T02:50:57.130Z,99.90
2019-01-02T02:53:46.724Z,99.90
2019-01-02T02:56:36.279Z,99.90
2019-01-02T03:02:33.251Z,99.90
2019-01-02T03:05:29.834Z,99.90
2019-01-02T03:08:17.670Z,99.90
2019-01-02T03:11:07.270Z,99.90
2019-01-02T03:13:50.159Z,99.90
2019-01-02T03:16:31.064Z,99.90
2019-01-02T03:19:12.567Z,99.90
2019-01-02T03:21:53.199Z,99.90
2019-01-02T03:24:33.895Z,99.90
2019-01-02T03:27:15.408Z,99.90
2019-01-02T03:29:55.788Z,99.90
2019-01-02T03:32:36.428Z,99.90
2019-01-02T03:35:17.354Z,99.90
2019-01-02T03:37:57.737Z,99.90
2019-01-02T03:40:38.006Z,99.90
2019-01-02T03:43:18.446Z,99.90
2019-01-02T03:45:59.185Z,99.90
2019-01-02T03:48:42.759Z,99.90
2019-01-02T03:51:23.440Z,99.90
2019-01-02T03:54:03.749Z,99.90
2019-01-02T03:56:44.074Z,99.90
2019-01-02T03:59:24.701Z,99.90
2019-01-02T04:02:05.344Z,99.90
2019-01-02T04:04:45.896Z,99.90
2019-01-02T04:07:26.246Z,99.90
2019-01-02T04:10:07.481Z,99.90
2019-01-02T04:12:47.831Z,99.90
2019-01-02T04:15:28.549Z,99.90
2019-01-02T04:18:09.439Z,99.90
2019-01-02T04:20:50.075Z,99.90
2019-01-02T04:23:31.105Z,99.90
2019-01-02T04:26:10.071Z,99.90
2019-01-02T04:28:57.936Z,99.90
2019-01-02T04:31:45.789Z,99.90
2019-01-02T04:34:33.686Z,99.90
2019-01-02T04:37:21.516Z,99.90
2019-01-02T04:40:30.058Z,99.90
2019-01-02T04:43:17.910Z,99.90
2019-01-02T04:46:05.807Z,99.90
2019-01-02T04:48:53.682Z,99.90
2019-01-02T04:57:33.070Z,99.90
2019-01-02T05:00:20.915Z,99.90
2019-01-02T05:03:09.103Z,99.90
2019-01-02T05:08:51.626Z,99.90
2019-01-02T05:11:39.462Z,99.90
2019-01-02T05:14:27.336Z,99.90
2019-01-02T05:17:15.226Z,99.90
2019-01-02T05:20:03.263Z,99.90
2019-01-02T05:22:51.127Z,99.90
2019-01-02T05:25:38.994Z,99.90
2019-01-02T05:28:26.889Z,99.90
2019-01-02T05:31:14.752Z,99.90
2019-01-02T05:34:02.625Z,99.90
2019-01-02T05:39:57.415Z,99.90
2019-01-02T05:42:45.283Z,99.90
2019-01-02T05:45:33.161Z,99.90
2019-01-02T05:48:21.080Z,99.90
2019-01-02T05:51:09.005Z,99.90
2019-01-02T05:53:56.841Z,99.90
2019-01-02T05:56:44.725Z,99.90
2019-01-02T05:59:32.595Z,99.90
2019-01-02T06:02:20.447Z,99.90
2019-01-02T06:05:08.579Z,99.90
2019-01-02T06:07:56.467Z,99.90
2019-01-02T06:10:44.334Z,99.90
2019-01-02T06:13:32.240Z,99.90
2019-01-02T06:16:13.102Z,99.90
2019-01-02T06:18:54.051Z,99.90
2019-01-02T06:21:35.077Z,99.90
2019-01-02T06:24:15.886Z,99.90
2019-01-02T06:26:56.592Z,99.90
2019-01-02T06:29:37.292Z,99.90
2019-01-02T06:32:17.971Z,99.90
2019-01-02T06:34:58.497Z,99.90
2019-01-02T06:37:38.811Z,99.90
2019-01-02T06:40:19.486Z,99.90
2019-01-02T06:42:59.977Z,99.90
2019-01-02T06:45:40.929Z,99.90
2019-01-02T06:48:21.508Z,99.90
2019-01-02T06:51:02.143Z,99.90
2019-01-02T06:53:42.942Z,99.90
2019-01-02T06:56:23.473Z,99.90
2019-01-02T06:59:03.982Z,99.90
2019-01-02T07:01:44.357Z,99.90
2019-01-02T07:04:25.042Z,99.90
2019-01-02T07:07:05.756Z,99.90
2019-01-02T07:09:46.458Z,99.90
2019-01-02T07:12:27.051Z,99.90
2019-01-02T07:15:07.473Z,99.90
2019-01-02T07:17:48.272Z,99.90
2019-01-02T07:20:28.694Z,99.90
2019-01-02T07:23:09.198Z,99.90
2019-01-02T07:25:50.042Z,99.90
2019-01-02T07:28:31.371Z,99.90
2019-01-02T07:31:11.995Z,99.90
2019-01-02T07:33:52.642Z,99.90
2019-01-02T07:36:33.328Z,99.90
2019-01-02T07:39:13.726Z,99.90
2019-01-02T07:41:54.261Z,99.90
2019-01-02T07:44:34.680Z,99.90
2019-01-02T07:47:15.616Z,99.90
2019-01-02T07:49:56.144Z,99.90
2019-01-02T07:52:36.849Z,99.90
2019-01-02T07:55:17.513Z,99.90
2019-01-02T07:57:58.227Z,99.90
2019-01-02T08:00:38.592Z,99.90
2019-01-02T08:03:19.218Z,99.90
2019-01-02T08:05:59.942Z,99.90
2019-01-02T08:08:40.457Z,99.90
2019-01-02T08:11:20.998Z,99.90
2019-01-02T08:14:01.496Z,99.90
2019-01-02T08:16:42.160Z,99.90
2019-01-02T08:19:22.701Z,99.90
2019-01-02T08:22:03.146Z,99.90
2019-01-02T08:24:44.167Z,99.90
2019-01-02T08:27:24.896Z,99.90
2019-01-02T08:30:05.456Z,99.90
2019-01-02T08:32:46.019Z,99.90
2019-01-02T08:35:26.678Z,99.90
2019-01-02T08:38:07.172Z,99.90
2019-01-02T08:40:47.759Z,99.90
2019-01-02T08:43:28.469Z,99.90
2019-01-02T08:46:09.249Z,99.90
2019-01-02T08:48:49.731Z,99.90
2019-01-02T08:51:30.721Z,99.90
2019-01-02T08:54:11.200Z,99.90
2019-01-02T08:56:51.811Z,99.90
2019-01-02T08:59:32.218Z,99.90
2019-01-02T09:02:12.542Z,99.90
2019-01-02T09:04:53.269Z,99.90
2019-01-02T09:07:33.798Z,99.90
2019-01-02T09:10:14.438Z,99.90
2019-01-02T09:12:55.238Z,99.90
2019-01-02T09:15:35.802Z,99.90
2019-01-02T09:18:16.771Z,99.90
2019-01-02T09:20:58.006Z,99.90
2019-01-02T09:23:38.621Z,99.90
2019-01-02T09:26:19.473Z,99.90
2019-01-02T09:28:59.937Z,99.90
2019-01-02T09:31:40.819Z,99.90
2019-01-02T09:34:21.867Z,99.90
2019-01-02T09:37:02.646Z,99.90
2019-01-02T09:39:43.064Z,99.90
2019-01-02T09:42:23.560Z,99.90
2019-01-02T09:45:04.388Z,99.90
2019-01-02T09:47:45.323Z,99.90
2019-01-02T09:50:25.955Z,99.90
2019-01-02T09:53:09.361Z,99.90
2019-01-02T09:55:49.855Z,99.90
2019-01-02T09:58:30.952Z,99.90
2019-01-02T10:01:11.567Z,99.90
2019-01-02T10:03:52.096Z,99.90
2019-01-02T10:06:32.827Z,99.90
2019-01-02T10:09:13.393Z,99.90
2019-01-02T10:11:53.923Z,99.90
2019-01-02T10:14:34.302Z,99.90
2019-01-02T10:17:14.681Z,99.90
2019-01-02T10:19:55.427Z,99.90
2019-01-02T10:22:35.721Z,99.90
2019-01-02T10:25:16.658Z,99.90
2019-01-02T10:27:58.337Z,99.90
2019-01-02T10:30:39.266Z,99.90
2019-01-02T10:33:19.939Z,99.90
2019-01-02T10:36:00.401Z,99.90
2019-01-02T10:38:40.930Z,99.90
2019-01-02T10:41:21.819Z,99.90
2019-01-02T10:44:02.309Z,99.90
2019-01-02T10:46:43.013Z,99.90
2019-01-02T10:49:23.840Z,99.90
2019-01-02T10:52:04.207Z,99.90
2019-01-02T10:54:44.709Z,99.90
2019-01-02T10:57:25.443Z,99.90
2019-01-02T11:00:06.415Z,99.90
2019-01-02T11:02:47.365Z,99.90
2019-01-02T11:05:27.818Z,99.90
2019-01-02T11:08:13.466Z,99.90
2019-01-02T11:10:51.263Z,99.90
2019-01-02T11:13:32.046Z,99.90
2019-01-02T11:16:12.696Z,99.90
2019-01-02T11:18:53.399Z,99.90
2019-01-02T11:21:34.132Z,99.90
2019-01-02T11:24:14.962Z,99.90
2019-01-02T11:26:55.262Z,99.90
2019-01-02T11:29:35.864Z,99.90
2019-01-02T11:32:16.168Z,99.90
2019-01-02T11:34:56.762Z,99.90
2019-01-02T11:37:37.681Z,99.90
2019-01-02T11:40:18.098Z,99.90
2019-01-02T11:42:58.932Z,99.90
2019-01-02T11:45:39.389Z,99.90
2019-01-02T11:48:20.588Z,99.90
2019-01-02T11:51:01.072Z,99.90
2019-01-02T11:53:42.648Z,99.90
2019-01-02T11:56:23.643Z,99.90
2019-01-02T11:59:04.398Z,99.90
2019-01-02T12:01:44.977Z,99.90
2019-01-02T12:04:25.534Z,99.90
2019-01-02T12:07:04.557Z,99.90
2019-01-02T12:09:52.444Z,99.90
2019-01-02T12:12:40.304Z,99.90
2019-01-02T12:15:28.178Z,99.90
2019-01-02T12:21:21.447Z,99.90
2019-01-02T12:24:02.038Z,99.90
2019-01-02T12:26:42.832Z,99.90
2019-01-02T12:29:23.338Z,99.00
2019-01-02T12:32:03.655Z,95.60
2019-01-02T12:34:44.158Z,95.70
2019-01-02T12:37:24.572Z,94.60
2019-01-02T12:40:05.198Z,94.30
2019-01-02T12:42:45.883Z,94.00
2019-01-02T12:45:26.536Z,91.50
2019-01-02T12:48:07.178Z,92.70
2019-01-02T12:50:47.718Z,89.70
2019-01-02T12:53:28.217Z,90.80
2019-01-02T12:56:08.657Z,92.20
2019-01-02T12:58:48.967Z,88.70
2019-01-02T13:01:29.514Z,92.00
2019-01-02T13:04:09.869Z,92.50
2019-01-02T13:06:50.391Z,93.50
2019-01-02T13:09:31.272Z,93.50
2019-01-02T13:12:12.017Z,91.90
2019-01-02T13:14:52.540Z,93.20
2019-01-02T13:17:32.934Z,95.20
2019-01-02T13:20:13.523Z,94.60
2019-01-02T13:22:55.579Z,93.80
2019-01-02T13:25:36.517Z,88.80
2019-01-02T13:28:17.390Z,88.90
2019-01-02T13:30:58.049Z,89.10
2019-01-02T13:33:38.512Z,90.70
2019-01-02T13:36:18.979Z,85.50
2019-01-02T13:38:59.592Z,88.10
2019-01-02T13:41:40.379Z,87.60
2019-01-02T13:44:20.751Z,90.50
2019-01-02T13:47:01.337Z,85.80
2019-01-02T13:49:42.062Z,89.10
2019-01-02T13:52:23.200Z,81.10
2019-01-02T13:55:03.472Z,80.80
2019-01-02T13:57:43.879Z,82.90
2019-01-02T14:00:24.490Z,85.30
2019-01-02T14:03:05.782Z,86.40
2019-01-02T14:05:46.157Z,89.00
2019-01-02T14:08:26.592Z,91.00
2019-01-02T14:11:05.591Z,92.40
2019-01-02T14:13:53.535Z,96.30
2019-01-02T14:16:41.526Z,98.20
2019-01-02T14:19:22.017Z,99.30
2019-01-02T14:22:02.447Z,99.10
2019-01-02T14:24:42.989Z,99.50
2019-01-02T14:27:23.389Z,99.90
2019-01-02T14:30:03.949Z,99.90
2019-01-02T14:32:44.567Z,99.90
2019-01-02T14:35:25.199Z,99.90
2019-01-02T14:38:06.252Z,99.90
2019-01-02T14:40:46.908Z,99.90
2019-01-02T14:43:27.644Z,99.90
2019-01-02T14:46:08.053Z,99.90
2019-01-02T14:48:48.497Z,99.90
2019-01-02T14:51:28.977Z,99.90
2019-01-02T14:54:09.673Z,99.90
2019-01-02T14:56:50.516Z,99.90
2019-01-02T14:59:30.978Z,99.90
2019-01-02T15:02:12.237Z,99.90
2019-01-02T15:04:52.562Z,99.90
2019-01-02T15:07:33.367Z,99.90
2019-01-02T15:10:14.011Z,99.90
2019-01-02T15:12:54.956Z,99.90
2019-01-02T15:15:36.374Z,99.90
2019-01-02T15:18:16.877Z,99.90
2019-01-02T15:20:57.217Z,99.90
2019-01-02T15:23:38.442Z,99.90
2019-01-02T15:26:18.971Z,99.90
2019-01-02T15:29:00.171Z,99.90
2019-01-02T15:31:40.693Z,99.90
2019-01-02T15:34:21.553Z,99.90
2019-01-02T15:37:02.537Z,99.90
2019-01-02T15:39:42.881Z,99.90
2019-01-02T15:42:23.630Z,99.90
2019-01-02T15:45:04.395Z,99.90
2019-01-02T15:47:44.946Z,99.90
2019-01-02T15:50:25.603Z,99.90
2019-01-02T15:53:06.199Z,99.90
2019-01-02T15:55:46.840Z,99.90
2019-01-02T15:58:27.300Z,99.90
2019-01-02T16:01:06.136Z,99.90
2019-01-02T16:03:53.991Z,99.90
2019-01-02T16:06:41.982Z,99.90
2019-01-02T16:09:29.849Z,99.90
2019-01-02T16:15:24.729Z,99.90
2019-01-02T16:18:12.613Z,99.90
2019-01-02T16:20:53.168Z,99.90
2019-01-02T16:23:34.159Z,99.90
2019-01-02T16:26:14.613Z,99.90
2019-01-02T16:28:55.967Z,99.90
2019-01-02T16:31:36.351Z,99.90
2019-01-02T16:34:16.757Z,99.90
2019-01-02T16:36:57.269Z,99.90
2019-01-02T16:39:37.709Z,99.90
2019-01-02T16:42:18.328Z,99.90
2019-01-02T16:44:59.287Z,99.90
2019-01-02T16:47:38.194Z,99.90
2019-01-02T16:50:26.082Z,99.90
2019-01-02T16:56:22.530Z,99.90
2019-01-02T16:59:10.387Z,99.90
2019-01-02T17:05:05.214Z,99.90
2019-01-02T17:07:53.095Z,99.90
2019-01-02T17:10:40.948Z,99.90
2019-01-02T17:16:22.445Z,99.90
2019-01-02T17:19:10.434Z,99.90
2019-01-02T17:21:58.311Z,99.90
2019-01-02T17:24:46.195Z,99.90
2019-01-02T17:27:34.051Z,99.90
2019-01-02T17:30:21.918Z,99.90
2019-01-02T17:33:09.983Z,99.90
2019-01-02T17:35:57.897Z,99.90
2019-01-02T17:41:54.273Z,99.90
2019-01-02T17:44:42.157Z,99.90
2019-01-02T17:47:30.055Z,99.90
2019-01-02T17:50:17.934Z,99.90
2019-01-02T17:53:05.838Z,99.90
2019-01-02T17:55:53.699Z,99.90
2019-01-02T17:58:41.557Z,99.90
2019-01-02T18:01:29.447Z,99.90
2019-01-02T18:04:17.338Z,99.90
2019-01-02T18:07:05.257Z,99.90
2019-01-02T18:09:53.176Z,99.90
2019-01-02T18:13:00.382Z,99.90
2019-01-02T18:15:48.286Z,99.90
2019-01-02T18:18:36.136Z,99.90
2019-01-02T18:21:17.405Z,99.90
2019-01-02T18:23:57.878Z,99.90
2019-01-02T18:26:38.504Z,99.90
2019-01-02T18:29:19.162Z,99.90
2019-01-02T18:32:00.128Z,99.90
2019-01-02T18:34:39.053Z,99.90
2019-01-02T18:37:26.949Z,99.90
2019-01-02T18:40:15.019Z,99.90
2019-01-02T18:43:02.902Z,99.90
2019-01-02T18:45:50.902Z,99.90
2019-01-02T18:48:38.769Z,99.90
2019-01-02T18:51:26.734Z,99.90
2019-01-02T18:54:14.634Z,99.90
2019-01-02T18:57:02.486Z,99.90
2019-01-02T18:59:50.359Z,99.90
2019-01-02T19:02:38.255Z,99.90
2019-01-02T19:08:13.793Z,99.90
2019-01-02T19:14:10.209Z,99.90
2019-01-02T19:16:58.375Z,99.90
2019-01-02T19:19:39.064Z,99.90
2019-01-02T19:22:20.597Z,99.90
2019-01-02T19:25:01.404Z,99.90
2019-01-02T19:27:42.332Z,99.90
2019-01-02T19:30:22.899Z,99.90
2019-01-02T19:33:03.654Z,99.90
2019-01-02T19:35:44.782Z,99.90
2019-01-02T19:38:25.444Z,99.90
2019-01-02T19:41:06.364Z,99.90
2019-01-02T19:43:46.978Z,99.90
2019-01-02T19:46:27.650Z,99.90
2019-01-02T19:49:08.378Z,99.90
2019-01-02T19:51:48.860Z,99.90
2019-01-02T19:54:29.263Z,99.90
2019-01-02T19:57:09.702Z,99.90
2019-01-02T19:59:54.604Z,99.90
2019-01-02T20:02:35.630Z,99.90
2019-01-02T20:05:16.418Z,99.90
2019-01-02T20:07:57.775Z,99.90
2019-01-02T20:10:38.390Z,99.90
2019-01-02T20:13:19.323Z,99.90
2019-01-02T20:16:00.562Z,99.90
2019-01-02T20:18:41.610Z,99.90
2019-01-02T20:21:22.399Z,99.90
2019-01-02T20:24:03.359Z,99.90
2019-01-02T20:26:44.079Z,99.90
2019-01-02T20:29:24.899Z,99.90
2019-01-02T20:32:05.638Z,99.90
2019-01-02T20:34:46.148Z,99.90
2019-01-02T20:37:27.055Z,99.90
2019-01-02T20:40:08.192Z,99.90
2019-01-02T20:42:48.779Z,99.90
2019-01-02T20:45:29.308Z,99.90
2019-01-02T20:48:09.655Z,99.90
2019-01-02T20:50:50.810Z,99.90
2019-01-02T20:53:31.336Z,99.90
2019-01-02T20:56:12.457Z,99.90
2019-01-02T20:58:53.338Z,99.90
2019-01-02T21:01:33.719Z,99.90
2019-01-02T21:04:14.549Z,99.90
2019-01-02T21:06:55.207Z,99.90
2019-01-02T21:09:35.558Z,99.90
2019-01-02T21:12:15.988Z,99.90
2019-01-02T21:14:56.674Z,99.90
2019-01-02T21:17:37.854Z,99.90
2019-01-02T21:20:18.479Z,99.90
2019-01-02T21:22:59.418Z,99.90
2019-01-02T21:25:40.153Z,99.90
2019-01-02T21:28:20.584Z,99.90
2019-01-02T21:31:00.947Z,99.90
2019-01-02T21:33:41.453Z,99.90
2019-01-02T21:36:22.259Z,99.90
2019-01-02T21:39:02.681Z,99.90
2019-01-02T21:41:43.287Z,99.90
2019-01-02T21:44:23.770Z,99.90
2019-01-02T21:47:04.413Z,99.90
2019-01-02T21:49:44.714Z,99.90
2019-01-02T21:52:25.257Z,99.90
2019-01-02T21:55:05.950Z,99.90
2019-01-02T21:57:47.317Z,99.90
2019-01-02T22:00:27.812Z,99.90
2019-01-02T22:03:08.392Z,99.90
2019-01-02T22:05:49.249Z,99.90
2019-01-02T22:08:30.584Z,99.90
2019-01-02T22:11:11.433Z,99.90
2019-01-02T22:13:51.902Z,99.90
2019-01-02T22:16:32.353Z,99.90
2019-01-02T22:19:12.988Z,99.90
2019-01-02T22:21:53.330Z,99.90
2019-01-02T22:24:34.169Z,99.90
2019-01-02T22:27:14.777Z,99.90
2019-01-02T22:29:55.223Z,99.90
2019-01-02T22:32:35.876Z,99.90
2019-01-02T22:35:17.194Z,99.90
2019-01-02T22:37:57.858Z,99.90
2019-01-02T22:40:38.407Z,99.90
2019-01-02T22:43:18.930Z,99.90
2019-01-02T22:45:59.753Z,99.90
2019-01-02T22:48:40.273Z,99.90
2019-01-02T22:51:21.219Z,99.90
2019-01-02T22:54:01.647Z,99.90
2019-01-02T22:56:42.083Z,99.90
2019-01-02T22:59:22.446Z,99.90
2019-01-02T23:02:04.297Z,99.90
2019-01-02T23:05:04.562Z,99.90
2019-01-02T23:07:46.508Z,99.90
2019-01-02T23:10:46.463Z,99.90
2019-01-02T23:13:28.328Z,99.90
2019-01-02T23:16:28.634Z,99.90
2019-01-02T23:19:10.574Z,99.90
2019-01-02T23:22:10.588Z,99.90
2019-01-02T23:25:10.099Z,99.90
2019-01-02T23:28:09.524Z,99.90
2019-01-02T23:31:09.023Z,99.90
2019-01-02T23:37:13.988Z,99.90
2019-01-02T23:46:27.759Z,99.90
2019-01-02T23:49:34.754Z,99.90
2019-01-02T23:52:41.842Z,99.90
